sensor_id;sensor_type;location;lat;lon;timestamp;P1;durP1;ratioP1;P2;durP2;ratioP2
38463;SDS011;24243;51.956;5.902;2023-05-16T00:00:17;1.88;;;0.73;;
38463;SDS011;24243;51.956;5.902;2023-05-16T00:02:44;2.83;;;1.00;;
38463;SDS011;24243;51.956;5.902;2023-05-16T00:05:10;4.38;;;1.08;;
38463;SDS011;24243;51.956;5.902;2023-05-16T00:07:40;3.83;;;1.00;;
38463;SDS011;24243;51.956;5.902;2023-05-16T00:10:10;2.78;;;0.93;;
38463;SDS011;24243;51.956;5.902;2023-05-16T00:12:36;3.33;;;0.80;;
38463;SDS011;24243;51.956;5.902;2023-05-16T00:15:06;3.00;;;0.73;;
38463;SDS011;24243;51.956;5.902;2023-05-16T00:17:36;4.05;;;1.05;;
38463;SDS011;24243;51.956;5.902;2023-05-16T00:20:02;4.20;;;0.90;;
38463;SDS011;24243;51.956;5.902;2023-05-16T00:22:35;2.83;;;0.90;;
38463;SDS011;24243;51.956;5.902;2023-05-16T00:25:01;3.47;;;0.93;;
38463;SDS011;24243;51.956;5.902;2023-05-16T00:27:27;5.13;;;1.35;;
38463;SDS011;24243;51.956;5.902;2023-05-16T00:29:54;3.72;;;1.20;;
38463;SDS011;24243;51.956;5.902;2023-05-16T00:32:20;3.63;;;0.98;;
38463;SDS011;24243;51.956;5.902;2023-05-16T00:34:45;4.88;;;1.40;;
38463;SDS011;24243;51.956;5.902;2023-05-16T00:37:12;4.93;;;1.10;;
38463;SDS011;24243;51.956;5.902;2023-05-16T00:39:38;4.93;;;1.35;;
38463;SDS011;24243;51.956;5.902;2023-05-16T00:42:04;4.22;;;1.00;;
38463;SDS011;24243;51.956;5.902;2023-05-16T00:44:30;3.92;;;1.10;;
38463;SDS011;24243;51.956;5.902;2023-05-16T00:46:56;3.70;;;0.93;;
38463;SDS011;24243;51.956;5.902;2023-05-16T00:49:24;2.83;;;0.90;;
38463;SDS011;24243;51.956;5.902;2023-05-16T00:51:50;4.65;;;1.00;;
38463;SDS011;24243;51.956;5.902;2023-05-16T00:54:17;3.88;;;1.15;;
38463;SDS011;24243;51.956;5.902;2023-05-16T00:56:45;3.08;;;0.90;;
38463;SDS011;24243;51.956;5.902;2023-05-16T00:59:11;3.75;;;0.95;;
38463;SDS011;24243;51.956;5.902;2023-05-16T01:01:37;3.45;;;0.68;;
38463;SDS011;24243;51.956;5.902;2023-05-16T01:04:05;3.92;;;1.00;;
38463;SDS011;24243;51.956;5.902;2023-05-16T01:06:32;4.05;;;1.00;;
38463;SDS011;24243;51.956;5.902;2023-05-16T01:09:01;3.90;;;0.93;;
38463;SDS011;24243;51.956;5.902;2023-05-16T01:17:25;2.33;;;1.00;;
38463;SDS011;24243;51.956;5.902;2023-05-16T01:27:51;4.10;;;0.93;;
38463;SDS011;24243;51.956;5.902;2023-05-16T01:30:17;3.13;;;0.60;;
38463;SDS011;24243;51.956;5.902;2023-05-16T01:32:44;2.40;;;1.10;;
38463;SDS011;24243;51.956;5.902;2023-05-16T01:35:11;3.45;;;0.80;;
38463;SDS011;24243;51.956;5.902;2023-05-16T01:37:57;2.35;;;0.90;;
38463;SDS011;24243;51.956;5.902;2023-05-16T01:40:53;3.47;;;0.70;;
38463;SDS011;24243;51.956;5.902;2023-05-16T01:43:42;2.95;;;0.77;;
38463;SDS011;24243;51.956;5.902;2023-05-16T01:46:10;3.47;;;0.82;;
38463;SDS011;24243;51.956;5.902;2023-05-16T01:48:43;3.05;;;0.80;;
38463;SDS011;24243;51.956;5.902;2023-05-16T01:51:19;5.95;;;1.10;;
38463;SDS011;24243;51.956;5.902;2023-05-16T01:53:46;3.10;;;0.70;;
38463;SDS011;24243;51.956;5.902;2023-05-16T01:58:42;2.78;;;0.70;;
38463;SDS011;24243;51.956;5.902;2023-05-16T02:03:37;2.17;;;0.50;;
38463;SDS011;24243;51.956;5.902;2023-05-16T02:06:03;2.15;;;0.73;;
38463;SDS011;24243;51.956;5.902;2023-05-16T02:08:29;3.17;;;0.70;;
38463;SDS011;24243;51.956;5.902;2023-05-16T02:10:55;2.60;;;0.70;;
38463;SDS011;24243;51.956;5.902;2023-05-16T02:13:21;4.20;;;0.88;;
38463;SDS011;24243;51.956;5.902;2023-05-16T02:15:47;2.95;;;0.68;;
38463;SDS011;24243;51.956;5.902;2023-05-16T02:18:13;3.60;;;1.08;;
38463;SDS011;24243;51.956;5.902;2023-05-16T02:20:38;3.70;;;0.70;;
38463;SDS011;24243;51.956;5.902;2023-05-16T02:23:04;3.47;;;0.80;;
38463;SDS011;24243;51.956;5.902;2023-05-16T02:25:30;4.72;;;0.70;;
38463;SDS011;24243;51.956;5.902;2023-05-16T02:27:56;2.25;;;0.65;;
38463;SDS011;24243;51.956;5.902;2023-05-16T02:30:21;3.63;;;0.70;;
38463;SDS011;24243;51.956;5.902;2023-05-16T02:32:47;2.38;;;0.60;;
38463;SDS011;24243;51.956;5.902;2023-05-16T02:35:13;2.70;;;0.57;;
38463;SDS011;24243;51.956;5.902;2023-05-16T02:37:40;2.92;;;0.70;;
38463;SDS011;24243;51.956;5.902;2023-05-16T02:40:06;3.53;;;0.75;;
38463;SDS011;24243;51.956;5.902;2023-05-16T02:42:33;2.47;;;0.50;;
38463;SDS011;24243;51.956;5.902;2023-05-16T02:44:59;1.65;;;0.60;;
38463;SDS011;24243;51.956;5.902;2023-05-16T02:47:24;2.90;;;0.80;;
38463;SDS011;24243;51.956;5.902;2023-05-16T02:49:50;3.38;;;0.80;;
38463;SDS011;24243;51.956;5.902;2023-05-16T02:52:17;3.50;;;0.80;;
38463;SDS011;24243;51.956;5.902;2023-05-16T02:54:43;2.42;;;0.65;;
38463;SDS011;24243;51.956;5.902;2023-05-16T02:57:09;2.47;;;0.65;;
38463;SDS011;24243;51.956;5.902;2023-05-16T02:59:35;2.78;;;0.60;;
38463;SDS011;24243;51.956;5.902;2023-05-16T03:02:01;3.13;;;0.68;;
38463;SDS011;24243;51.956;5.902;2023-05-16T03:04:26;4.15;;;0.60;;
38463;SDS011;24243;51.956;5.902;2023-05-16T03:06:52;2.25;;;0.70;;
38463;SDS011;24243;51.956;5.902;2023-05-16T03:09:18;1.88;;;0.57;;
38463;SDS011;24243;51.956;5.902;2023-05-16T03:11:44;2.75;;;0.73;;
38463;SDS011;24243;51.956;5.902;2023-05-16T03:14:10;1.95;;;0.50;;
38463;SDS011;24243;51.956;5.902;2023-05-16T03:16:36;3.40;;;0.85;;
38463;SDS011;24243;51.956;5.902;2023-05-16T03:19:03;3.67;;;1.05;;
38463;SDS011;24243;51.956;5.902;2023-05-16T03:21:29;3.20;;;0.85;;
38463;SDS011;24243;51.956;5.902;2023-05-16T03:23:55;2.85;;;0.68;;
38463;SDS011;24243;51.956;5.902;2023-05-16T03:26:22;1.83;;;0.43;;
38463;SDS011;24243;51.956;5.902;2023-05-16T03:28:49;2.17;;;0.55;;
38463;SDS011;24243;51.956;5.902;2023-05-16T03:31:15;3.30;;;0.60;;
38463;SDS011;24243;51.956;5.902;2023-05-16T03:33:41;2.75;;;0.60;;
38463;SDS011;24243;51.956;5.902;2023-05-16T03:36:07;3.13;;;0.80;;
38463;SDS011;24243;51.956;5.902;2023-05-16T03:38:33;2.20;;;0.88;;
38463;SDS011;24243;51.956;5.902;2023-05-16T03:41:00;3.78;;;0.90;;
38463;SDS011;24243;51.956;5.902;2023-05-16T03:43:25;4.13;;;0.75;;
38463;SDS011;24243;51.956;5.902;2023-05-16T03:45:51;2.90;;;0.80;;
38463;SDS011;24243;51.956;5.902;2023-05-16T03:48:17;3.05;;;0.88;;
38463;SDS011;24243;51.956;5.902;2023-05-16T03:50:43;2.15;;;0.60;;
38463;SDS011;24243;51.956;5.902;2023-05-16T03:53:09;2.75;;;0.68;;
38463;SDS011;24243;51.956;5.902;2023-05-16T03:55:35;3.38;;;0.70;;
38463;SDS011;24243;51.956;5.902;2023-05-16T03:58:01;2.55;;;0.82;;
38463;SDS011;24243;51.956;5.902;2023-05-16T04:00:27;2.45;;;0.68;;
38463;SDS011;24243;51.956;5.902;2023-05-16T04:02:53;2.47;;;0.65;;
38463;SDS011;24243;51.956;5.902;2023-05-16T04:05:19;2.30;;;0.43;;
38463;SDS011;24243;51.956;5.902;2023-05-16T04:07:45;3.10;;;0.73;;
38463;SDS011;24243;51.956;5.902;2023-05-16T04:10:11;2.03;;;0.57;;
38463;SDS011;24243;51.956;5.902;2023-05-16T04:12:38;2.40;;;0.73;;
38463;SDS011;24243;51.956;5.902;2023-05-16T04:15:04;2.10;;;0.43;;
38463;SDS011;24243;51.956;5.902;2023-05-16T04:17:31;2.83;;;0.77;;
38463;SDS011;24243;51.956;5.902;2023-05-16T04:19:57;3.88;;;0.75;;
38463;SDS011;24243;51.956;5.902;2023-05-16T04:22:24;2.55;;;0.65;;
38463;SDS011;24243;51.956;5.902;2023-05-16T04:24:50;2.45;;;0.52;;
38463;SDS011;24243;51.956;5.902;2023-05-16T04:27:16;1.83;;;0.70;;
38463;SDS011;24243;51.956;5.902;2023-05-16T04:29:42;3.55;;;0.70;;
38463;SDS011;24243;51.956;5.902;2023-05-16T04:32:09;1.77;;;0.52;;
38463;SDS011;24243;51.956;5.902;2023-05-16T04:34:35;2.08;;;0.63;;
38463;SDS011;24243;51.956;5.902;2023-05-16T04:37:04;2.90;;;0.55;;
38463;SDS011;24243;51.956;5.902;2023-05-16T04:39:32;2.45;;;0.60;;
38463;SDS011;24243;51.956;5.902;2023-05-16T04:41:58;1.98;;;0.60;;
38463;SDS011;24243;51.956;5.902;2023-05-16T04:44:25;1.15;;;0.50;;
38463;SDS011;24243;51.956;5.902;2023-05-16T04:46:51;3.67;;;0.85;;
38463;SDS011;24243;51.956;5.902;2023-05-16T04:49:20;2.10;;;0.40;;
38463;SDS011;24243;51.956;5.902;2023-05-16T04:51:49;3.25;;;0.52;;
38463;SDS011;24243;51.956;5.902;2023-05-16T04:54:14;5.10;;;0.60;;
38463;SDS011;24243;51.956;5.902;2023-05-16T04:56:40;2.95;;;0.70;;
38463;SDS011;24243;51.956;5.902;2023-05-16T04:59:06;2.67;;;0.70;;
38463;SDS011;24243;51.956;5.902;2023-05-16T05:01:32;3.33;;;0.77;;
38463;SDS011;24243;51.956;5.902;2023-05-16T05:03:57;3.50;;;0.80;;
38463;SDS011;24243;51.956;5.902;2023-05-16T05:06:23;4.10;;;0.70;;
38463;SDS011;24243;51.956;5.902;2023-05-16T05:08:49;3.13;;;0.50;;
38463;SDS011;24243;51.956;5.902;2023-05-16T05:11:15;1.52;;;0.35;;
38463;SDS011;24243;51.956;5.902;2023-05-16T05:13:41;2.67;;;0.60;;
38463;SDS011;24243;51.956;5.902;2023-05-16T05:16:07;3.53;;;0.73;;
38463;SDS011;24243;51.956;5.902;2023-05-16T05:18:32;2.40;;;0.50;;
38463;SDS011;24243;51.956;5.902;2023-05-16T05:20:58;3.97;;;0.98;;
38463;SDS011;24243;51.956;5.902;2023-05-16T05:23:24;2.67;;;0.52;;
38463;SDS011;24243;51.956;5.902;2023-05-16T05:25:50;4.00;;;0.90;;
38463;SDS011;24243;51.956;5.902;2023-05-16T05:28:15;2.10;;;0.70;;
38463;SDS011;24243;51.956;5.902;2023-05-16T05:30:42;1.38;;;0.43;;
38463;SDS011;24243;51.956;5.902;2023-05-16T05:33:09;7.43;;;1.25;;
38463;SDS011;24243;51.956;5.902;2023-05-16T05:35:35;7.57;;;1.20;;
38463;SDS011;24243;51.956;5.902;2023-05-16T05:38:01;4.63;;;0.80;;
38463;SDS011;24243;51.956;5.902;2023-05-16T05:40:28;4.20;;;0.73;;
38463;SDS011;24243;51.956;5.902;2023-05-16T05:42:54;5.65;;;0.90;;
38463;SDS011;24243;51.956;5.902;2023-05-16T05:45:19;7.10;;;1.00;;
38463;SDS011;24243;51.956;5.902;2023-05-16T05:47:45;5.93;;;0.90;;
38463;SDS011;24243;51.956;5.902;2023-05-16T05:50:11;5.63;;;1.00;;
38463;SDS011;24243;51.956;5.902;2023-05-16T05:52:38;5.60;;;0.70;;
38463;SDS011;24243;51.956;5.902;2023-05-16T05:55:04;4.70;;;0.70;;
38463;SDS011;24243;51.956;5.902;2023-05-16T05:57:30;3.65;;;0.60;;
38463;SDS011;24243;51.956;5.902;2023-05-16T05:59:56;3.05;;;0.70;;
38463;SDS011;24243;51.956;5.902;2023-05-16T06:02:22;3.08;;;0.80;;
38463;SDS011;24243;51.956;5.902;2023-05-16T06:04:48;4.53;;;0.50;;
38463;SDS011;24243;51.956;5.902;2023-05-16T06:07:13;3.05;;;0.60;;
38463;SDS011;24243;51.956;5.902;2023-05-16T06:09:40;2.17;;;0.60;;
38463;SDS011;24243;51.956;5.902;2023-05-16T06:12:07;2.00;;;0.50;;
38463;SDS011;24243;51.956;5.902;2023-05-16T06:14:33;3.13;;;0.80;;
38463;SDS011;24243;51.956;5.902;2023-05-16T06:16:58;4.35;;;0.75;;
38463;SDS011;24243;51.956;5.902;2023-05-16T06:19:24;4.00;;;0.90;;
38463;SDS011;24243;51.956;5.902;2023-05-16T06:21:50;2.80;;;0.68;;
38463;SDS011;24243;51.956;5.902;2023-05-16T06:24:16;3.97;;;0.93;;
38463;SDS011;24243;51.956;5.902;2023-05-16T06:26:42;4.07;;;0.70;;
38463;SDS011;24243;51.956;5.902;2023-05-16T06:29:10;3.10;;;0.57;;
38463;SDS011;24243;51.956;5.902;2023-05-16T06:31:35;3.95;;;1.00;;
38463;SDS011;24243;51.956;5.902;2023-05-16T06:34:01;2.72;;;0.70;;
38463;SDS011;24243;51.956;5.902;2023-05-16T06:36:27;3.05;;;0.70;;
38463;SDS011;24243;51.956;5.902;2023-05-16T06:38:53;3.03;;;0.55;;
38463;SDS011;24243;51.956;5.902;2023-05-16T06:41:19;4.40;;;0.85;;
38463;SDS011;24243;51.956;5.902;2023-05-16T06:43:45;3.78;;;0.63;;
38463;SDS011;24243;51.956;5.902;2023-05-16T06:46:11;2.38;;;0.70;;
38463;SDS011;24243;51.956;5.902;2023-05-16T06:48:37;4.78;;;0.88;;
38463;SDS011;24243;51.956;5.902;2023-05-16T06:51:02;2.92;;;0.60;;
38463;SDS011;24243;51.956;5.902;2023-05-16T06:53:28;2.30;;;0.60;;
38463;SDS011;24243;51.956;5.902;2023-05-16T06:55:54;2.63;;;0.68;;
38463;SDS011;24243;51.956;5.902;2023-05-16T06:58:20;3.33;;;0.70;;
38463;SDS011;24243;51.956;5.902;2023-05-16T07:00:47;2.88;;;0.70;;
38463;SDS011;24243;51.956;5.902;2023-05-16T07:03:14;2.80;;;0.65;;
38463;SDS011;24243;51.956;5.902;2023-05-16T07:05:39;1.98;;;0.52;;
38463;SDS011;24243;51.956;5.902;2023-05-16T07:08:07;2.67;;;0.73;;
38463;SDS011;24243;51.956;5.902;2023-05-16T07:10:36;2.85;;;0.68;;
38463;SDS011;24243;51.956;5.902;2023-05-16T07:13:02;3.47;;;0.77;;
38463;SDS011;24243;51.956;5.902;2023-05-16T07:15:29;3.70;;;0.82;;
38463;SDS011;24243;51.956;5.902;2023-05-16T07:17:55;2.10;;;0.85;;
38463;SDS011;24243;51.956;5.902;2023-05-16T07:20:21;2.58;;;0.80;;
38463;SDS011;24243;51.956;5.902;2023-05-16T07:22:47;4.25;;;0.70;;
38463;SDS011;24243;51.956;5.902;2023-05-16T07:25:13;4.35;;;0.60;;
38463;SDS011;24243;51.956;5.902;2023-05-16T07:27:40;3.38;;;0.75;;
38463;SDS011;24243;51.956;5.902;2023-05-16T07:30:09;3.20;;;0.63;;
38463;SDS011;24243;51.956;5.902;2023-05-16T07:32:35;3.10;;;0.90;;
38463;SDS011;24243;51.956;5.902;2023-05-16T07:35:02;3.33;;;0.50;;
38463;SDS011;24243;51.956;5.902;2023-05-16T07:37:28;3.28;;;0.52;;
38463;SDS011;24243;51.956;5.902;2023-05-16T07:39:54;2.47;;;0.60;;
38463;SDS011;24243;51.956;5.902;2023-05-16T07:42:20;2.40;;;0.50;;
38463;SDS011;24243;51.956;5.902;2023-05-16T07:44:46;3.30;;;0.50;;
38463;SDS011;24243;51.956;5.902;2023-05-16T07:47:12;1.90;;;0.50;;
38463;SDS011;24243;51.956;5.902;2023-05-16T07:49:37;2.95;;;0.50;;
38463;SDS011;24243;51.956;5.902;2023-05-16T07:52:04;2.72;;;0.40;;
38463;SDS011;24243;51.956;5.902;2023-05-16T07:54:29;4.50;;;0.45;;
38463;SDS011;24243;51.956;5.902;2023-05-16T07:56:57;0.98;;;0.40;;
38463;SDS011;24243;51.956;5.902;2023-05-16T07:59:23;2.95;;;0.52;;
38463;SDS011;24243;51.956;5.902;2023-05-16T08:01:48;4.50;;;0.57;;
38463;SDS011;24243;51.956;5.902;2023-05-16T08:04:15;2.30;;;0.55;;
38463;SDS011;24243;51.956;5.902;2023-05-16T08:06:40;2.45;;;0.40;;
38463;SDS011;24243;51.956;5.902;2023-05-16T08:09:06;1.80;;;0.47;;
38463;SDS011;24243;51.956;5.902;2023-05-16T08:11:33;1.23;;;0.30;;
38463;SDS011;24243;51.956;5.902;2023-05-16T08:13:59;1.55;;;0.38;;
38463;SDS011;24243;51.956;5.902;2023-05-16T08:16:44;1.92;;;0.30;;
38463;SDS011;24243;51.956;5.902;2023-05-16T08:19:09;1.55;;;0.30;;
38463;SDS011;24243;51.956;5.902;2023-05-16T08:21:35;1.52;;;0.40;;
38463;SDS011;24243;51.956;5.902;2023-05-16T08:24:01;1.30;;;0.30;;
38463;SDS011;24243;51.956;5.902;2023-05-16T08:26:29;3.25;;;0.52;;
38463;SDS011;24243;51.956;5.902;2023-05-16T08:28:56;1.80;;;0.40;;
38463;SDS011;24243;51.956;5.902;2023-05-16T08:31:22;2.42;;;0.50;;
38463;SDS011;24243;51.956;5.902;2023-05-16T08:33:47;1.65;;;0.50;;
38463;SDS011;24243;51.956;5.902;2023-05-16T08:36:13;1.95;;;0.50;;
38463;SDS011;24243;51.956;5.902;2023-05-16T08:38:40;1.55;;;0.45;;
38463;SDS011;24243;51.956;5.902;2023-05-16T08:41:05;1.95;;;0.38;;
38463;SDS011;24243;51.956;5.902;2023-05-16T08:43:31;1.60;;;0.40;;
38463;SDS011;24243;51.956;5.902;2023-05-16T08:45:59;2.38;;;0.40;;
38463;SDS011;24243;51.956;5.902;2023-05-16T08:48:25;2.15;;;0.45;;
38463;SDS011;24243;51.956;5.902;2023-05-16T08:50:52;1.10;;;0.30;;
38463;SDS011;24243;51.956;5.902;2023-05-16T08:53:20;1.08;;;0.30;;
38463;SDS011;24243;51.956;5.902;2023-05-16T08:55:50;1.65;;;0.38;;
38463;SDS011;24243;51.956;5.902;2023-05-16T08:58:17;0.95;;;0.30;;
38463;SDS011;24243;51.956;5.902;2023-05-16T09:00:44;1.38;;;0.20;;
38463;SDS011;24243;51.956;5.902;2023-05-16T09:03:10;0.68;;;0.17;;
38463;SDS011;24243;51.956;5.902;2023-05-16T09:05:36;1.38;;;0.30;;
38463;SDS011;24243;51.956;5.902;2023-05-16T09:08:02;4.30;;;0.38;;
38463;SDS011;24243;51.956;5.902;2023-05-16T09:10:28;1.83;;;0.30;;
38463;SDS011;24243;51.956;5.902;2023-05-16T09:12:54;1.90;;;0.30;;
38463;SDS011;24243;51.956;5.902;2023-05-16T09:15:20;2.80;;;0.40;;
38463;SDS011;24243;51.956;5.902;2023-05-16T09:17:45;1.08;;;0.30;;
38463;SDS011;24243;51.956;5.902;2023-05-16T09:20:12;1.40;;;0.30;;
38463;SDS011;24243;51.956;5.902;2023-05-16T09:22:48;2.78;;;0.32;;
38463;SDS011;24243;51.956;5.902;2023-05-16T09:25:16;1.80;;;0.40;;
38463;SDS011;24243;51.956;5.902;2023-05-16T09:27:42;1.70;;;0.63;;
38463;SDS011;24243;51.956;5.902;2023-05-16T09:30:10;2.03;;;0.40;;
38463;SDS011;24243;51.956;5.902;2023-05-16T09:32:45;2.60;;;0.50;;
38463;SDS011;24243;51.956;5.902;2023-05-16T09:35:14;1.55;;;0.50;;
38463;SDS011;24243;51.956;5.902;2023-05-16T09:37:44;1.05;;;0.30;;
38463;SDS011;24243;51.956;5.902;2023-05-16T09:40:11;1.08;;;0.50;;
38463;SDS011;24243;51.956;5.902;2023-05-16T09:42:37;2.47;;;0.40;;
38463;SDS011;24243;51.956;5.902;2023-05-16T09:45:03;2.05;;;0.40;;
38463;SDS011;24243;51.956;5.902;2023-05-16T09:47:29;2.08;;;0.80;;
38463;SDS011;24243;51.956;5.902;2023-05-16T09:49:55;1.67;;;0.47;;
38463;SDS011;24243;51.956;5.902;2023-05-16T09:52:21;1.40;;;0.40;;
38463;SDS011;24243;51.956;5.902;2023-05-16T09:54:50;1.35;;;0.30;;
38463;SDS011;24243;51.956;5.902;2023-05-16T09:57:17;1.65;;;0.52;;
38463;SDS011;24243;51.956;5.902;2023-05-16T09:59:45;1.75;;;0.40;;
38463;SDS011;24243;51.956;5.902;2023-05-16T10:02:12;4.07;;;0.55;;
38463;SDS011;24243;51.956;5.902;2023-05-16T10:04:38;5.65;;;0.40;;
38463;SDS011;24243;51.956;5.902;2023-05-16T10:07:04;1.98;;;0.60;;
38463;SDS011;24243;51.956;5.902;2023-05-16T10:09:33;2.50;;;0.50;;
38463;SDS011;24243;51.956;5.902;2023-05-16T10:12:01;3.15;;;0.40;;
38463;SDS011;24243;51.956;5.902;2023-05-16T10:14:29;3.23;;;0.57;;
38463;SDS011;24243;51.956;5.902;2023-05-16T10:16:58;1.73;;;0.43;;
38463;SDS011;24243;51.956;5.902;2023-05-16T10:19:25;3.38;;;0.73;;
38463;SDS011;24243;51.956;5.902;2023-05-16T10:21:53;3.80;;;0.65;;
38463;SDS011;24243;51.956;5.902;2023-05-16T10:24:25;1.35;;;0.30;;
38463;SDS011;24243;51.956;5.902;2023-05-16T10:27:14;1.13;;;0.28;;
38463;SDS011;24243;51.956;5.902;2023-05-16T10:29:40;2.05;;;0.70;;
38463;SDS011;24243;51.956;5.902;2023-05-16T10:32:07;1.38;;;0.40;;
38463;SDS011;24243;51.956;5.902;2023-05-16T10:34:34;4.03;;;0.55;;
38463;SDS011;24243;51.956;5.902;2023-05-16T10:37:00;1.65;;;0.60;;
38463;SDS011;24243;51.956;5.902;2023-05-16T10:39:27;2.17;;;0.70;;
38463;SDS011;24243;51.956;5.902;2023-05-16T10:41:55;1.73;;;0.40;;
38463;SDS011;24243;51.956;5.902;2023-05-16T10:44:21;1.88;;;0.40;;
38463;SDS011;24243;51.956;5.902;2023-05-16T10:46:47;0.77;;;0.30;;
38463;SDS011;24243;51.956;5.902;2023-05-16T10:49:20;2.38;;;0.50;;
38463;SDS011;24243;51.956;5.902;2023-05-16T10:51:48;1.95;;;0.32;;
38463;SDS011;24243;51.956;5.902;2023-05-16T10:54:38;1.33;;;0.30;;
38463;SDS011;24243;51.956;5.902;2023-05-16T10:57:09;1.50;;;0.43;;
38463;SDS011;24243;51.956;5.902;2023-05-16T10:59:50;2.58;;;0.60;;
38463;SDS011;24243;51.956;5.902;2023-05-16T11:02:20;2.50;;;0.45;;
38463;SDS011;24243;51.956;5.902;2023-05-16T11:04:53;1.70;;;0.30;;
38463;SDS011;24243;51.956;5.902;2023-05-16T11:07:21;1.13;;;0.30;;
38463;SDS011;24243;51.956;5.902;2023-05-16T11:10:07;2.67;;;0.65;;
38463;SDS011;24243;51.956;5.902;2023-05-16T11:12:42;1.25;;;0.50;;
38463;SDS011;24243;51.956;5.902;2023-05-16T11:15:23;2.55;;;0.52;;
38463;SDS011;24243;51.956;5.902;2023-05-16T11:20:40;3.22;;;0.60;;
38463;SDS011;24243;51.956;5.902;2023-05-16T11:28:29;2.20;;;0.50;;
38463;SDS011;24243;51.956;5.902;2023-05-16T11:31:02;2.15;;;0.52;;
38463;SDS011;24243;51.956;5.902;2023-05-16T11:33:29;1.40;;;0.40;;
38463;SDS011;24243;51.956;5.902;2023-05-16T11:36:02;2.50;;;0.60;;
38463;SDS011;24243;51.956;5.902;2023-05-16T11:38:30;1.75;;;0.43;;
38463;SDS011;24243;51.956;5.902;2023-05-16T11:41:05;2.90;;;0.60;;
38463;SDS011;24243;51.956;5.902;2023-05-16T11:43:42;2.10;;;0.50;;
38463;SDS011;24243;51.956;5.902;2023-05-16T11:46:10;5.30;;;0.75;;
38463;SDS011;24243;51.956;5.902;2023-05-16T11:48:40;2.65;;;0.52;;
38463;SDS011;24243;51.956;5.902;2023-05-16T11:51:06;2.95;;;0.50;;
38463;SDS011;24243;51.956;5.902;2023-05-16T11:53:33;3.35;;;0.30;;
38463;SDS011;24243;51.956;5.902;2023-05-16T11:55:59;3.00;;;0.50;;
38463;SDS011;24243;51.956;5.902;2023-05-16T11:58:26;1.98;;;0.43;;
38463;SDS011;24243;51.956;5.902;2023-05-16T12:00:52;2.05;;;0.50;;
38463;SDS011;24243;51.956;5.902;2023-05-16T12:03:18;2.90;;;0.60;;
38463;SDS011;24243;51.956;5.902;2023-05-16T12:05:51;2.67;;;0.55;;
38463;SDS011;24243;51.956;5.902;2023-05-16T12:08:21;3.72;;;0.52;;
38463;SDS011;24243;51.956;5.902;2023-05-16T12:10:49;1.90;;;0.40;;
38463;SDS011;24243;51.956;5.902;2023-05-16T12:13:17;2.17;;;0.50;;
38463;SDS011;24243;51.956;5.902;2023-05-16T12:15:47;1.65;;;0.50;;
38463;SDS011;24243;51.956;5.902;2023-05-16T12:18:13;1.98;;;0.43;;
38463;SDS011;24243;51.956;5.902;2023-05-16T12:20:40;1.35;;;0.47;;
38463;SDS011;24243;51.956;5.902;2023-05-16T12:23:10;2.53;;;0.52;;
38463;SDS011;24243;51.956;5.902;2023-05-16T12:25:37;1.48;;;0.47;;
38463;SDS011;24243;51.956;5.902;2023-05-16T12:28:10;2.20;;;0.45;;
38463;SDS011;24243;51.956;5.902;2023-05-16T12:30:38;2.22;;;0.30;;
38463;SDS011;24243;51.956;5.902;2023-05-16T12:33:09;2.17;;;0.68;;
38463;SDS011;24243;51.956;5.902;2023-05-16T12:35:45;1.60;;;0.47;;
38463;SDS011;24243;51.956;5.902;2023-05-16T12:38:12;2.53;;;0.60;;
38463;SDS011;24243;51.956;5.902;2023-05-16T12:40:42;3.00;;;0.90;;
38463;SDS011;24243;51.956;5.902;2023-05-16T12:43:12;2.03;;;0.60;;
38463;SDS011;24243;51.956;5.902;2023-05-16T12:45:48;1.73;;;0.40;;
38463;SDS011;24243;51.956;5.902;2023-05-16T12:48:15;2.28;;;0.38;;
38463;SDS011;24243;51.956;5.902;2023-05-16T12:50:41;2.47;;;0.52;;
38463;SDS011;24243;51.956;5.902;2023-05-16T12:53:11;1.75;;;0.43;;
38463;SDS011;24243;51.956;5.902;2023-05-16T12:55:38;2.33;;;0.60;;
38463;SDS011;24243;51.956;5.902;2023-05-16T12:58:04;0.70;;;0.30;;
38463;SDS011;24243;51.956;5.902;2023-05-16T13:00:30;2.45;;;0.50;;
38463;SDS011;24243;51.956;5.902;2023-05-16T13:02:56;2.58;;;0.40;;
38463;SDS011;24243;51.956;5.902;2023-05-16T13:05:22;1.92;;;0.30;;
38463;SDS011;24243;51.956;5.902;2023-05-16T13:07:48;3.05;;;0.60;;
38463;SDS011;24243;51.956;5.902;2023-05-16T13:10:15;2.35;;;0.68;;
38463;SDS011;24243;51.956;5.902;2023-05-16T13:12:42;3.35;;;0.43;;
38463;SDS011;24243;51.956;5.902;2023-05-16T13:15:09;1.77;;;0.40;;
38463;SDS011;24243;51.956;5.902;2023-05-16T13:17:36;2.00;;;0.50;;
38463;SDS011;24243;51.956;5.902;2023-05-16T13:20:03;1.02;;;0.32;;
38463;SDS011;24243;51.956;5.902;2023-05-16T13:22:37;1.75;;;0.38;;
38463;SDS011;24243;51.956;5.902;2023-05-16T13:25:06;1.67;;;0.68;;
38463;SDS011;24243;51.956;5.902;2023-05-16T13:27:32;1.00;;;0.30;;
38463;SDS011;24243;51.956;5.902;2023-05-16T13:29:59;1.02;;;0.40;;
38463;SDS011;24243;51.956;5.902;2023-05-16T13:32:25;1.08;;;0.40;;
38463;SDS011;24243;51.956;5.902;2023-05-16T13:34:51;1.75;;;0.40;;
38463;SDS011;24243;51.956;5.902;2023-05-16T13:37:17;1.75;;;0.50;;
38463;SDS011;24243;51.956;5.902;2023-05-16T13:39:43;1.70;;;0.40;;
38463;SDS011;24243;51.956;5.902;2023-05-16T13:42:09;2.20;;;0.43;;
38463;SDS011;24243;51.956;5.902;2023-05-16T13:44:35;2.83;;;0.45;;
38463;SDS011;24243;51.956;5.902;2023-05-16T13:47:01;1.30;;;0.35;;
38463;SDS011;24243;51.956;5.902;2023-05-16T13:49:27;1.23;;;0.50;;
38463;SDS011;24243;51.956;5.902;2023-05-16T13:51:53;2.50;;;0.50;;
38463;SDS011;24243;51.956;5.902;2023-05-16T13:54:19;3.08;;;0.63;;
38463;SDS011;24243;51.956;5.902;2023-05-16T13:56:46;2.28;;;0.40;;
38463;SDS011;24243;51.956;5.902;2023-05-16T13:59:12;2.08;;;0.55;;
38463;SDS011;24243;51.956;5.902;2023-05-16T14:01:38;2.15;;;0.47;;
38463;SDS011;24243;51.956;5.902;2023-05-16T14:04:05;2.63;;;0.70;;
38463;SDS011;24243;51.956;5.902;2023-05-16T14:06:31;1.35;;;0.43;;
38463;SDS011;24243;51.956;5.902;2023-05-16T14:08:57;2.40;;;0.57;;
38463;SDS011;24243;51.956;5.902;2023-05-16T14:11:23;1.48;;;0.85;;
38463;SDS011;24243;51.956;5.902;2023-05-16T14:13:54;4.05;;;0.63;;
38463;SDS011;24243;51.956;5.902;2023-05-16T14:16:20;2.15;;;0.50;;
38463;SDS011;24243;51.956;5.902;2023-05-16T14:18:46;2.10;;;0.65;;
38463;SDS011;24243;51.956;5.902;2023-05-16T14:21:12;2.13;;;0.70;;
38463;SDS011;24243;51.956;5.902;2023-05-16T14:23:38;1.63;;;0.50;;
38463;SDS011;24243;51.956;5.902;2023-05-16T14:26:04;2.35;;;0.70;;
38463;SDS011;24243;51.956;5.902;2023-05-16T14:28:31;2.63;;;0.50;;
38463;SDS011;24243;51.956;5.902;2023-05-16T14:30:58;2.78;;;0.70;;
38463;SDS011;24243;51.956;5.902;2023-05-16T14:33:24;2.78;;;0.80;;
38463;SDS011;24243;51.956;5.902;2023-05-16T14:35:50;3.88;;;0.75;;
38463;SDS011;24243;51.956;5.902;2023-05-16T14:38:16;4.03;;;0.70;;
38463;SDS011;24243;51.956;5.902;2023-05-16T14:40:42;2.10;;;0.40;;
38463;SDS011;24243;51.956;5.902;2023-05-16T14:43:08;3.00;;;0.73;;
38463;SDS011;24243;51.956;5.902;2023-05-16T14:45:33;4.00;;;0.57;;
38463;SDS011;24243;51.956;5.902;2023-05-16T14:48:01;2.75;;;0.60;;
38463;SDS011;24243;51.956;5.902;2023-05-16T14:50:27;1.38;;;0.40;;
38463;SDS011;24243;51.956;5.902;2023-05-16T14:52:53;3.78;;;0.63;;
38463;SDS011;24243;51.956;5.902;2023-05-16T14:55:19;1.58;;;0.47;;
38463;SDS011;24243;51.956;5.902;2023-05-16T14:57:45;2.88;;;0.90;;
38463;SDS011;24243;51.956;5.902;2023-05-16T15:00:13;2.65;;;0.57;;
38463;SDS011;24243;51.956;5.902;2023-05-16T15:02:41;1.17;;;0.45;;
38463;SDS011;24243;51.956;5.902;2023-05-16T15:05:07;2.05;;;0.50;;
38463;SDS011;24243;51.956;5.902;2023-05-16T15:07:33;2.78;;;0.80;;
38463;SDS011;24243;51.956;5.902;2023-05-16T15:09:59;2.13;;;0.50;;
38463;SDS011;24243;51.956;5.902;2023-05-16T15:12:25;1.83;;;0.70;;
38463;SDS011;24243;51.956;5.902;2023-05-16T15:14:51;2.80;;;0.73;;